Time;durP1;ratioP1;P1;durP2;ratioP2;P2;SDS_P1;SDS_P2;PMS_P1;PMS_P2;Temp;Humidity;BMP_temperature;BMP_pressure;BME280_temperature;BME280_humidity;BME280_pressure;Samples;Min_cycle;Max_cycle;Signal;HPM_P1;HPM_P2
2021/12/22 00:01:27;;;;;;;8.13;7.40;;;;;;;-1.06;88.00;100466.84;5091295;28;20211;-72
2021/12/22 00:03:54;;;;;;;7.50;6.37;;;;;;;-1.11;87.95;100465.88;5090913;28;20222;-72
2021/12/22 00:06:24;;;;;;;12.47;6.80;;;;;;;-1.14;87.83;100470.78;5090513;28;20282;-72
2021/12/22 00:08:53;;;;;;;7.50;6.80;;;;;;;-1.28;87.45;100451.84;5089817;28;20199;-72
2021/12/22 00:11:20;;;;;;;7.10;6.40;;;;;;;-1.17;87.24;100473.22;5088105;28;20223;-72
2021/12/22 00:13:47;;;;;;;7.40;6.20;;;;;;;-1.15;86.94;100481.66;5089647;28;20203;-72
2021/12/22 00:16:14;;;;;;;7.27;6.57;;;;;;;-1.16;86.50;100474.03;5089386;28;20195;-72
2021/12/22 00:18:41;;;;;;;11.00;6.10;;;;;;;-1.20;85.85;100468.09;5090021;28;20199;-72
2021/12/22 00:21:08;;;;;;;9.90;6.13;;;;;;;-1.23;85.14;100457.06;5089859;28;20209;-72
2021/12/22 00:23:35;;;;;;;5.50;5.10;;;;;;;-1.20;85.20;100465.56;5089744;28;20217;-72
2021/12/22 00:26:04;;;;;;;5.97;5.40;;;;;;;-1.07;85.04;100489.47;5090186;28;20198;-72
2021/12/22 00:28:33;;;;;;;6.57;5.97;;;;;;;-1.08;85.27;100486.09;5088837;28;20195;-72
2021/12/22 00:30:59;;;;;;;6.67;6.00;;;;;;;-1.07;85.03;100485.28;5091830;28;20230;-72
2021/12/22 00:33:30;;;;;;;6.87;6.30;;;;;;;-1.07;85.34;100485.28;5092881;28;20218;-72
2021/12/22 00:35:57;;;;;;;7.87;5.50;;;;;;;-1.08;85.10;100482.72;5092992;28;20203;-72
2021/12/22 00:38:24;;;;;;;7.00;5.33;;;;;;;-1.09;85.38;100491.06;5092555;28;20202;-72
2021/12/22 00:40:51;;;;;;;7.30;5.33;;;;;;;-1.10;85.19;100487.69;5092561;28;20207;-73
2021/12/22 00:43:19;;;;;;;4.70;4.50;;;;;;;-1.12;84.87;100491.81;5092721;28;20205;-72
2021/12/22 00:45:55;;;;;;;6.90;6.00;;;;;;;-1.11;84.55;100488.50;5093830;28;20544;-72
2021/12/22 00:48:22;;;;;;;6.20;5.60;;;;;;;-1.12;84.32;100488.44;5094141;28;20260;-72
2021/12/22 00:50:48;;;;;;;5.87;5.37;;;;;;;-1.07;84.66;100490.31;5094580;28;20218;-72
2021/12/22 00:53:16;;;;;;;6.03;5.63;;;;;;;-1.03;84.68;100491.25;5094085;28;20552;-72
2021/12/22 00:55:42;;;;;;;6.10;5.60;;;;;;;-1.20;84.66;100470.59;5094538;28;20196;-72
2021/12/22 00:58:09;;;;;;;5.50;5.20;;;;;;;-1.13;84.60;100497.66;5091618;28;20569;-72
2021/12/22 01:00:38;;;;;;;5.70;5.30;;;;;;;-1.19;84.00;100499.09;5093994;28;20203;-72
2021/12/22 01:03:04;;;;;;;5.17;4.77;;;;;;;-1.18;83.88;100496.66;5094419;28;20305;-72
2021/12/22 01:05:32;;;;;;;5.63;5.33;;;;;;;-1.16;84.35;100497.53;5093411;28;20219;-72
2021/12/22 01:08:00;;;;;;;9.30;5.27;;;;;;;-1.16;84.67;100500.06;5093043;28;20671;-72
2021/12/22 01:10:29;;;;;;;6.80;6.13;;;;;;;-1.13;84.63;100496.81;5093574;28;20275;-72
2021/12/22 01:12:59;;;;;;;5.67;5.10;;;;;;;-1.10;84.58;100504.47;5094175;28;20199;-72
2021/12/22 01:15:26;;;;;;;7.90;5.80;;;;;;;-1.10;85.28;100495.22;5093605;28;20286;-72
2021/12/22 01:18:00;;;;;;;7.00;6.50;;;;;;;-1.13;85.23;100489.28;5094291;28;20724;-72
2021/12/22 01:20:31;;;;;;;7.43;6.70;;;;;;;-1.07;84.87;100500.38;5093722;28;20656;-72
2021/12/22 01:23:03;;;;;;;7.20;6.50;;;;;;;-1.04;85.20;100498.78;5093878;28;20671;-72
2021/12/22 01:25:32;;;;;;;10.47;6.70;;;;;;;-0.98;85.33;100499.84;5093385;28;20222;-72
2021/12/22 01:27:59;;;;;;;10.60;7.20;;;;;;;-0.97;85.30;100501.56;5093712;28;20195;-72
2021/12/22 01:30:28;;;;;;;10.60;7.63;;;;;;;-0.92;85.57;100494.16;5093518;28;20200;-72
2021/12/22 01:32:59;;;;;;;9.20;7.03;;;;;;;-0.90;85.71;100495.03;5093673;28;20210;-72
2021/12/22 01:35:28;;;;;;;7.43;6.73;;;;;;;-0.90;85.82;100487.50;5091253;28;20191;-72
2021/12/22 01:37:55;;;;;;;8.67;7.10;;;;;;;-0.90;85.52;100487.50;5093585;28;20199;-72
2021/12/22 01:40:23;;;;;;;10.77;6.90;;;;;;;-0.93;84.99;100482.34;5093375;28;20623;-72
2021/12/22 01:42:51;;;;;;;7.03;6.43;;;;;;;-0.95;84.57;100478.94;5093635;28;23241;-72
2021/12/22 01:45:48;;;;;;;6.97;5.60;;;;;;;-1.02;84.49;100482.06;5093498;28;20242;-72
2021/12/22 01:51:06;;;;;;;5.40;5.07;;;;;;;-1.18;84.88;100486.59;5093440;28;20210;-72
2021/12/22 01:53:41;;;;;;;5.83;5.43;;;;;;;-1.27;85.30;100486.28;5093208;28;20206;-72
2021/12/22 01:56:18;;;;;;;5.70;5.20;;;;;;;-1.38;85.53;100482.53;5093148;28;20195;-72
2021/12/22 01:58:47;;;;;;;5.87;5.47;;;;;;;-1.49;85.85;100483.81;5093140;28;20199;-72
2021/12/22 02:01:15;;;;;;;5.37;4.80;;;;;;;-1.55;86.21;100488.63;5093208;28;20204;-72
2021/12/22 02:03:45;;;;;;;7.63;4.50;;;;;;;-1.58;86.28;100483.47;5091989;28;20199;-72
2021/12/22 02:06:13;;;;;;;4.73;4.33;;;;;;;-1.57;86.52;100482.69;5090608;28;20605;-72
2021/12/22 02:08:40;;;;;;;4.50;4.20;;;;;;;-1.57;86.92;100490.22;5092161;28;20214;-72
2021/12/22 02:11:08;;;;;;;6.20;5.03;;;;;;;-1.56;86.97;100481.91;5092862;28;20725;-72
2021/12/22 02:13:38;;;;;;;4.93;4.70;;;;;;;-1.56;86.59;100476.00;5092864;28;20199;-72
2021/12/22 02:16:09;;;;;;;5.63;5.13;;;;;;;-1.57;86.55;100470.13;5086043;28;20204;-72
2021/12/22 02:18:38;;;;;;;5.60;5.13;;;;;;;-1.51;86.21;100484.56;5091413;28;20203;-72
2021/12/22 02:21:07;;;;;;;10.40;5.67;;;;;;;-1.52;86.00;100486.25;5091837;28;20199;-73
2021/12/22 02:23:34;;;;;;;6.70;5.60;;;;;;;-1.60;86.17;100470.00;5092629;28;20206;-72
2021/12/22 02:26:08;;;;;;;6.93;6.33;;;;;;;-1.49;85.88;100477.94;5092476;28;20195;-72
2021/12/22 02:28:37;;;;;;;14.10;7.57;;;;;;;-1.43;85.60;100483.19;5092581;28;20199;-72
2021/12/22 02:31:04;;;;;;;6.93;6.23;;;;;;;-1.46;86.15;100478.91;5092442;28;20199;-72
2021/12/22 02:33:36;;;;;;;7.60;6.90;;;;;;;-1.51;86.24;100479.53;5092655;28;20211;-72
2021/12/22 02:36:20;;;;;;;8.40;7.60;;;;;;;-1.59;86.37;100481.78;5092172;28;20203;-72
2021/12/22 02:38:49;;;;;;;7.57;6.97;;;;;;;-1.67;86.50;100479.00;5091292;28;20602;-72
2021/12/22 02:41:18;;;;;;;7.03;6.33;;;;;;;-1.74;85.55;100477.06;5092289;28;20203;-72
2021/12/22 02:43:48;;;;;;;7.03;5.63;;;;;;;-1.74;85.36;100479.56;5092178;28;20200;-72
2021/12/22 02:46:16;;;;;;;6.73;5.83;;;;;;;-1.80;85.60;100475.97;5092107;28;20196;-72
2021/12/22 02:48:44;;;;;;;10.00;5.93;;;;;;;-1.83;85.52;100475.88;5092395;28;20196;-72
2021/12/22 02:51:13;;;;;;;5.43;5.03;;;;;;;-1.88;85.44;100458.13;5091914;28;20191;-72
2021/12/22 02:53:44;;;;;;;6.20;5.70;;;;;;;-1.77;85.40;100481.09;5091762;28;20682;-72
2021/12/22 02:56:26;;;;;;;6.33;5.80;;;;;;;-1.79;85.37;100478.56;5091880;28;20234;-73
2021/12/22 02:59:01;;;;;;;5.70;5.30;;;;;;;-1.88;85.33;100457.28;5091852;28;20722;-72
2021/12/22 03:01:55;;;;;;;6.40;5.77;;;;;;;-1.90;85.33;100448.78;5090967;28;20575;-72
2021/12/22 03:04:26;;;;;;;5.87;5.47;;;;;;;-1.85;85.10;100469.94;5091007;28;20599;-72
2021/12/22 03:06:59;;;;;;;6.07;5.57;;;;;;;-1.83;85.61;100470.84;5091678;28;20253;-72
2021/12/22 03:09:28;;;;;;;6.57;5.20;;;;;;;-1.77;85.90;100466.03;5091971;28;20246;-72
2021/12/22 03:11:56;;;;;;;4.67;4.37;;;;;;;-1.81;85.21;100465.06;5091841;28;20196;-72
2021/12/22 03:14:24;;;;;;;7.37;5.07;;;;;;;-1.82;85.41;100468.41;5091647;28;20195;-72
2021/12/22 03:16:52;;;;;;;4.53;4.33;;;;;;;-1.81;85.20;100464.22;5091620;28;20192;-72
2021/12/22 03:19:22;;;;;;;7.50;4.60;;;;;;;-1.83;85.43;100473.34;5091644;28;20203;-72
2021/12/22 03:21:52;;;;;;;5.23;4.83;;;;;;;-1.87;85.85;100479.06;5091541;28;20583;-72
2021/12/22 03:24:22;;;;;;;5.73;5.23;;;;;;;-1.91;86.05;100475.59;5091595;28;20738;-72
2021/12/22 03:26:49;;;;;;;4.97;4.53;;;;;;;-1.97;86.16;100469.50;5091806;28;20203;-72
2021/12/22 03:29:18;;;;;;;5.13;4.83;;;;;;;-1.96;86.26;100483.75;5091643;28;20257;-72
2021/12/22 03:31:47;;;;;;;4.63;4.30;;;;;;;-2.00;86.24;100466.88;5091473;28;20199;-72
2021/12/22 03:34:15;;;;;;;5.97;4.30;;;;;;;-1.90;86.02;100486.50;5091145;28;20204;-72
2021/12/22 03:36:43;;;;;;;6.53;4.40;;;;;;;-1.91;85.78;100472.25;5091742;28;20195;-72
2021/12/22 03:39:11;;;;;;;5.47;4.53;;;;;;;-1.83;85.63;100485.91;5091194;28;20195;-72
2021/12/22 03:41:40;;;;;;;4.37;4.03;;;;;;;-1.80;85.74;100486.03;5091371;28;20667;-72
2021/12/22 03:44:08;;;;;;;4.87;4.67;;;;;;;-1.75;85.49;100487.94;5088608;28;20556;-72
2021/12/22 03:46:36;;;;;;;4.97;4.67;;;;;;;-1.70;85.50;100488.06;5091025;28;20195;-72
2021/12/22 03:49:04;;;;;;;4.43;4.03;;;;;;;-1.64;85.59;100488.28;5091096;28;20203;-72
2021/12/22 03:51:31;;;;;;;4.40;4.10;;;;;;;-1.65;85.11;100494.16;5091304;28;20701;-72
2021/12/22 03:53:58;;;;;;;4.57;4.37;;;;;;;-1.60;84.42;100496.00;5091210;28;20317;-72
2021/12/22 03:56:25;;;;;;;4.90;4.60;;;;;;;-1.61;84.51;100503.47;5090912;28;20679;-72
2021/12/22 03:58:53;;;;;;;5.80;5.37;;;;;;;-1.56;84.93;100501.16;5090268;28;20202;-72
2021/12/22 04:01:20;;;;;;;5.17;4.87;;;;;;;-1.54;85.23;100494.50;5089309;28;20290;-72
2021/12/22 04:03:50;;;;;;;6.00;5.40;;;;;;;-1.50;85.29;100497.19;5090884;28;20205;-72
2021/12/22 04:06:17;;;;;;;5.40;4.53;;;;;;;-1.51;85.50;100494.59;5094852;28;20268;-73
2021/12/22 04:08:44;;;;;;;4.97;4.57;;;;;;;-1.60;85.41;100480.94;5091195;28;20202;-73
2021/12/22 04:11:11;;;;;;;7.37;5.60;;;;;;;-1.46;85.30;100498.16;5094929;28;20234;-72
2021/12/22 04:13:38;;;;;;;5.17;4.77;;;;;;;-1.45;85.10;100503.22;5095133;28;20194;-72
2021/12/22 04:16:06;;;;;;;5.57;5.07;;;;;;;-1.51;84.38;100492.94;5095080;28;20689;-72
2021/12/22 04:18:33;;;;;;;5.60;5.20;;;;;;;-1.52;84.10;100498.81;5094719;28;20195;-73
2021/12/22 04:21:00;;;;;;;7.03;6.43;;;;;;;-1.56;84.88;100507.03;5095391;28;20225;-72
2021/12/22 04:23:27;;;;;;;6.80;6.30;;;;;;;-1.54;85.42;100512.97;5091523;28;20210;-72
2021/12/22 04:25:54;;;;;;;8.70;7.10;;;;;;;-1.58;86.52;100523.72;5093721;28;20578;-72
2021/12/22 04:28:21;;;;;;;17.90;10.97;;;;;;;-1.61;86.94;100521.09;5092932;28;20570;-73
2021/12/22 04:30:50;;;;;;;25.77;13.87;;;;;;;-1.60;86.96;100526.19;5092719;28;20203;-72
2021/12/22 04:33:20;;;;;;;27.30;14.67;;;;;;;-1.67;86.79;100528.41;5093105;28;20195;-72
2021/12/22 04:35:48;;;;;;;17.47;10.30;;;;;;;-1.65;86.72;100521.78;5091851;28;20196;-73
2021/12/22 04:38:15;;;;;;;14.40;9.73;;;;;;;-1.81;86.93;100512.81;5092777;28;20205;-72
2021/12/22 04:40:42;;;;;;;9.40;8.13;;;;;;;-1.83;88.38;100526.13;5092552;28;20203;-72
2021/12/22 04:43:09;;;;;;;10.27;8.57;;;;;;;-1.89;89.58;100521.75;5093496;28;20194;-72
2021/12/22 04:45:36;;;;;;;11.40;7.80;;;;;;;-2.05;90.86;100524.47;5092247;28;20235;-72
2021/12/22 04:48:04;;;;;;;12.27;7.77;;;;;;;-2.10;91.75;100525.09;5092800;28;20710;-72
2021/12/22 04:50:33;;;;;;;9.13;8.33;;;;;;;-2.06;92.33;100517.72;5092479;28;20706;-72
2021/12/22 04:53:05;;;;;;;8.57;7.87;;;;;;;-2.07;92.35;100523.56;5089791;28;20199;-73
2021/12/22 04:55:32;;;;;;;10.80;8.17;;;;;;;-2.10;92.58;100520.09;5091614;28;20207;-72
2021/12/22 04:58:00;;;;;;;16.47;10.40;;;;;;;-2.09;92.95;100524.28;5092678;28;20191;-72
2021/12/22 05:00:33;;;;;;;14.80;10.47;;;;;;;-2.17;93.40;100529.03;5094254;28;20699;-72
2021/12/22 05:03:01;;;;;;;10.70;9.10;;;;;;;-2.18;93.78;100524.81;5094062;28;20206;-73
2021/12/22 05:05:29;;;;;;;12.53;8.77;;;;;;;-2.16;93.84;100531.59;5094102;28;20211;-73
2021/12/22 05:07:57;;;;;;;11.33;10.07;;;;;;;-2.13;93.89;100531.72;5093940;28;20199;-73
2021/12/22 05:10:25;;;;;;;15.13;10.43;;;;;;;-2.07;93.34;100531.13;5094057;28;20721;-72
2021/12/22 05:12:53;;;;;;;15.83;10.00;;;;;;;-2.09;92.80;100532.69;5093796;28;20671;-73
2021/12/22 05:15:22;;;;;;;21.20;12.93;;;;;;;-2.15;92.57;100528.28;5093581;28;20187;-72
2021/12/22 05:20:42;;;;;;;14.73;10.37;;;;;;;-2.03;91.41;100542.97;5069039;28;20196;-72
2021/12/22 05:23:10;;;;;;;13.93;10.07;;;;;;;-2.08;91.41;100543.59;5090511;28;20195;-73
2021/12/22 05:25:37;;;;;;;22.87;12.17;;;;;;;-2.14;91.21;100540.06;5093921;28;20219;-73
2021/12/22 05:28:05;;;;;;;20.87;11.87;;;;;;;-2.12;91.13;100543.47;5093544;28;20195;-73
2021/12/22 05:30:32;;;;;;;13.83;9.70;;;;;;;-2.18;91.19;100543.25;5093818;28;20199;-73
2021/12/22 05:32:59;;;;;;;13.30;10.20;;;;;;;-2.28;91.51;100528.63;5093211;28;20205;-73
2021/12/22 05:35:26;;;;;;;20.03;13.43;;;;;;;-2.21;91.08;100537.25;5093685;28;20675;-73
2021/12/22 05:37:53;;;;;;;30.40;14.17;;;;;;;-2.20;90.89;100544.81;5093377;28;20682;-73
2021/12/22 05:40:21;;;;;;;23.47;12.47;;;;;;;-2.26;90.66;100554.63;5093552;28;20206;-73
2021/12/22 05:42:49;;;;;;;12.83;10.80;;;;;;;-2.48;90.06;100528.63;5093636;28;20575;-73
2021/12/22 05:45:16;;;;;;;23.07;12.73;;;;;;;-2.35;89.92;100543.38;5092485;28;20215;-73
2021/12/22 05:47:43;;;;;;;11.63;10.23;;;;;;;-2.24;89.69;100555.56;5092950;28;20279;-73
2021/12/22 05:50:10;;;;;;;13.17;7.93;;;;;;;-2.17;89.43;100557.53;5093010;28;20199;-73
2021/12/22 05:52:37;;;;;;;9.60;6.93;;;;;;;-2.12;88.76;100563.56;5093206;28;20200;-73
2021/12/22 05:55:04;;;;;;;10.93;8.27;;;;;;;-2.06;88.61;100562.09;5092220;28;20674;-73
2021/12/22 05:57:33;;;;;;;7.80;6.97;;;;;;;-2.08;88.43;100572.09;5091922;28;20218;-73
2021/12/22 05:59:59;;;;;;;15.23;7.40;;;;;;;-2.05;88.03;100569.69;5092976;28;20206;-73
2021/12/22 06:02:26;;;;;;;8.47;7.57;;;;;;;-2.09;88.03;100565.34;5092938;28;20207;-73
2021/12/22 06:04:53;;;;;;;10.53;8.20;;;;;;;-2.00;88.11;100584.97;5092862;28;20211;-73
2021/12/22 06:07:20;;;;;;;9.40;8.70;;;;;;;-1.97;88.12;100583.41;5092788;28;20195;-73
2021/12/22 06:09:47;;;;;;;13.13;11.80;;;;;;;-1.93;87.87;100579.34;5092814;28;20227;-73
2021/12/22 06:12:14;;;;;;;21.23;9.90;;;;;;;-1.93;87.59;100581.84;5092161;28;20286;-73
2021/12/22 06:14:42;;;;;;;11.03;8.87;;;;;;;-1.94;87.77;100582.69;5092796;28;20202;-73
2021/12/22 06:17:09;;;;;;;11.67;10.07;;;;;;;-1.97;88.22;100580.06;5092480;28;20202;-73
2021/12/22 06:19:36;;;;;;;16.07;9.90;;;;;;;-2.06;87.93;100579.66;5092493;28;20205;-72
2021/12/22 06:22:04;;;;;;;9.53;8.43;;;;;;;-2.08;87.98;100583.78;5092713;28;20578;-73
2021/12/22 06:24:31;;;;;;;12.03;9.43;;;;;;;-2.16;88.55;100580.97;5089833;28;20645;-73
2021/12/22 06:26:58;;;;;;;15.03;9.97;;;;;;;-2.24;88.96;100587.34;5091934;28;20215;-73
2021/12/22 06:29:25;;;;;;;9.13;8.13;;;;;;;-2.26;89.16;100599.84;5092081;28;20200;-73
2021/12/22 06:31:53;;;;;;;9.03;7.30;;;;;;;-2.28;89.33;100586.38;5091912;28;20215;-73
2021/12/22 06:34:20;;;;;;;10.50;7.73;;;;;;;-2.26;89.34;100597.31;5091938;28;20207;-72
2021/12/22 06:36:47;;;;;;;8.13;7.63;;;;;;;-2.28;89.66;100588.88;5092360;28;20685;-73
2021/12/22 06:39:15;;;;;;;9.27;8.37;;;;;;;-2.17;89.45;100592.69;5092045;28;20208;-73
2021/12/22 06:41:42;;;;;;;10.00;8.20;;;;;;;-2.14;89.54;100590.31;5092096;28;20195;-73
2021/12/22 06:44:09;;;;;;;9.43;8.23;;;;;;;-2.18;90.07;100590.97;5092052;28;20196;-73
2021/12/22 06:46:36;;;;;;;8.53;7.80;;;;;;;-2.21;89.64;100583.31;5091589;28;20690;-73
2021/12/22 06:49:04;;;;;;;7.10;6.23;;;;;;;-2.14;89.31;100587.78;5092449;28;20211;-73
2021/12/22 06:51:31;;;;;;;7.90;6.87;;;;;;;-2.24;88.48;100573.16;5079916;28;20225;-67
2021/12/22 06:53:58;;;;;;;9.33;7.20;;;;;;;-2.04;87.74;100590.66;5085684;28;20235;-67
2021/12/22 06:56:25;;;;;;;9.20;6.37;;;;;;;-2.03;87.19;100607.41;5088273;28;20204;-66
2021/12/22 06:58:52;;;;;;;15.57;7.67;;;;;;;-1.96;87.59;100599.34;5086786;28;20571;-67
2021/12/22 07:01:20;;;;;;;37.83;7.57;;;;;;;-1.90;87.69;100589.50;5089048;28;20665;-65
2021/12/22 07:03:47;;;;;;;13.00;6.93;;;;;;;-1.83;87.79;100588.94;5082126;28;20256;-67
2021/12/22 07:06:16;;;;;;;10.80;6.20;;;;;;;-1.69;86.70;100590.34;5085778;28;20249;-71
2021/12/22 07:08:43;;;;;;;7.20;6.50;;;;;;;-1.66;87.08;100585.44;5083677;28;20669;-72
2021/12/22 07:11:10;;;;;;;6.63;6.03;;;;;;;-1.59;86.95;100577.31;5086620;28;20719;-69
2021/12/22 07:13:37;;;;;;;10.33;6.63;;;;;;;-1.50;86.63;100592.75;5084259;28;20248;-70
2021/12/22 07:16:04;;;;;;;7.73;6.67;;;;;;;-1.43;86.22;100598.84;5087240;28;20195;-70
2021/12/22 07:18:32;;;;;;;7.80;7.03;;;;;;;-1.42;86.54;100590.53;5083432;28;20207;-70
2021/12/22 07:21:00;;;;;;;10.03;7.37;;;;;;;-1.38;86.74;100595.69;5087283;28;20200;-70
2021/12/22 07:23:28;;;;;;;9.13;8.23;;;;;;;-1.34;86.69;100594.16;5087343;28;20199;-70
2021/12/22 07:25:55;;;;;;;12.00;10.77;;;;;;;-1.37;87.29;100599.94;5086074;28;20215;-70
2021/12/22 07:28:23;;;;;;;12.43;10.53;;;;;;;-1.36;87.29;100606.69;5085469;28;20553;-71
2021/12/22 07:30:50;;;;;;;14.63;9.20;;;;;;;-1.37;87.57;100597.44;5085206;28;20206;-70
2021/12/22 07:33:17;;;;;;;7.93;7.23;;;;;;;-1.29;87.57;100597.72;5087582;28;20235;-70
2021/12/22 07:35:56;;;;;;;10.20;8.63;;;;;;;-1.26;87.59;100603.69;5086885;28;20724;-70
2021/12/22 07:38:32;;;;;;;8.20;7.27;;;;;;;-1.24;87.73;100603.75;5083895;28;20663;-72
2021/12/22 07:41:01;;;;;;;8.83;7.23;;;;;;;-1.23;88.01;100611.34;5084763;28;20229;-70
2021/12/22 07:43:29;;;;;;;9.00;8.10;;;;;;;-1.24;87.33;100616.31;5086878;28;20195;-70
2021/12/22 07:45:57;;;;;;;8.43;7.63;;;;;;;-1.30;86.94;100611.94;5087763;28;20229;-72
2021/12/22 07:48:24;;;;;;;8.00;7.13;;;;;;;-1.25;86.59;100612.94;5086662;28;20203;-70
2021/12/22 07:50:52;;;;;;;8.63;7.23;;;;;;;-1.25;86.23;100602.88;5085574;28;20201;-70
2021/12/22 07:53:19;;;;;;;8.50;7.73;;;;;;;-1.20;86.64;100605.59;5086054;28;20207;-68
2021/12/22 07:55:47;;;;;;;9.50;8.57;;;;;;;-1.15;87.19;100607.47;5087339;28;20638;-73
2021/12/22 07:58:15;;;;;;;8.83;7.93;;;;;;;-1.10;87.50;100620.22;5086058;28;20217;-71
2021/12/22 08:00:42;;;;;;;10.50;8.20;;;;;;;-1.03;87.76;100623.81;5086745;28;20598;-71
2021/12/22 08:03:11;;;;;;;16.47;10.63;;;;;;;-0.99;88.06;100623.09;5088337;28;20667;-69
2021/12/22 08:05:38;;;;;;;11.27;8.63;;;;;;;-0.87;88.22;100621.03;5088725;28;20227;-70
2021/12/22 08:08:06;;;;;;;9.00;8.10;;;;;;;-0.89;88.01;100623.47;5084527;28;20203;-70
2021/12/22 08:10:34;;;;;;;13.10;10.27;;;;;;;-0.80;87.49;100620.41;5080236;28;20227;-70
2021/12/22 08:13:02;;;;;;;9.17;8.27;;;;;;;-0.76;87.87;100623.09;5085155;28;20199;-70
2021/12/22 08:15:30;;;;;;;8.50;7.63;;;;;;;-0.62;87.84;100621.06;5083026;28;20208;-71
2021/12/22 08:17:57;;;;;;;113.93;12.90;;;;;;;-0.52;88.28;100618.88;5082755;28;20199;-68
2021/12/22 08:20:25;;;;;;;36.33;7.83;;;;;;;-0.42;88.25;100615.00;5084816;28;20203;-69
2021/12/22 08:22:52;;;;;;;7.70;6.83;;;;;;;-0.35;87.40;100623.63;5086785;28;20202;-70
2021/12/22 08:25:18;;;;;;;7.70;6.90;;;;;;;-0.37;86.83;100618.53;5082102;28;20615;-70
2021/12/22 08:27:45;;;;;;;14.10;8.00;;;;;;;-0.28;86.13;100621.34;5086256;28;20218;-74
2021/12/22 08:30:14;;;;;;;7.47;6.57;;;;;;;-0.30;84.85;100629.69;5086760;28;20218;-72
2021/12/22 08:32:41;;;;;;;8.10;7.30;;;;;;;-0.32;84.79;100627.09;5087386;28;20225;-73
2021/12/22 08:35:11;;;;;;;8.33;7.50;;;;;;;-0.31;85.81;100623.78;5086430;28;20594;-70
2021/12/22 08:40:23;;;;;;;6.27;5.87;;;;;;;-0.24;87.45;100630.75;5085502;28;20202;-69
2021/12/22 08:42:51;;;;;;;5.43;5.03;;;;;;;-0.24;86.97;100634.91;5087113;28;20200;-69
2021/12/22 08:45:20;;;;;;;6.37;5.97;;;;;;;-0.29;86.69;100617.13;5085668;28;20214;-71
2021/12/22 08:47:47;;;;;;;7.27;6.77;;;;;;;-0.22;86.49;100629.13;5084744;28;20222;-70
2021/12/22 08:50:17;;;;;;;7.73;7.20;;;;;;;-0.20;86.48;100627.53;5088130;28;20210;-70
2021/12/22 08:52:45;;;;;;;5.83;5.43;;;;;;;-0.16;86.04;100618.41;5092403;28;20203;-69
2021/12/22 08:55:13;;;;;;;5.40;5.03;;;;;;;-0.03;85.41;100621.31;5088292;28;20290;-69
2021/12/22 08:57:40;;;;;;;4.50;4.20;;;;;;;0.11;85.61;100615.88;5090823;28;20197;-70
2021/12/22 09:00:09;;;;;;;4.80;4.40;;;;;;;0.06;82.64;100619.91;5090090;28;20214;-69
2021/12/22 09:02:38;;;;;;;5.90;5.43;;;;;;;0.19;81.86;100624.53;5090364;28;20230;-69
2021/12/22 09:05:06;;;;;;;5.10;4.70;;;;;;;0.23;80.07;100618.75;5088088;28;20667;-70
2021/12/22 09:07:33;;;;;;;4.27;4.00;;;;;;;0.36;81.28;100610.75;5088711;28;20231;-69
2021/12/22 09:10:00;;;;;;;3.83;3.53;;;;;;;0.37;77.58;100604.91;5090483;28;20222;-69
2021/12/22 09:12:29;;;;;;;4.03;3.77;;;;;;;0.49;78.09;100610.31;5089782;28;20209;-69
2021/12/22 09:14:57;;;;;;;4.23;3.90;;;;;;;0.57;75.87;100616.44;5087496;28;20256;-69
2021/12/22 09:17:23;;;;;;;4.10;3.90;;;;;;;0.60;70.74;100615.69;5090275;28;20206;-70
2021/12/22 09:19:53;;;;;;;4.60;4.20;;;;;;;0.64;73.19;100608.25;5086283;28;20210;-70
2021/12/22 09:22:21;;;;;;;4.93;4.53;;;;;;;0.56;73.23;100591.16;5093045;28;20275;-70
2021/12/22 09:24:48;;;;;;;7.10;6.50;;;;;;;0.70;73.71;100610.94;5084377;28;20206;-70
2021/12/22 09:27:15;;;;;;;5.80;5.30;;;;;;;0.75;74.20;100611.91;5089750;28;20230;-70
2021/12/22 09:29:42;;;;;;;5.17;4.80;;;;;;;0.74;73.62;100610.22;5090137;28;20203;-71
2021/12/22 09:32:14;;;;;;;5.03;4.57;;;;;;;0.78;73.65;100596.84;5089723;28;20260;-71
2021/12/22 09:34:41;;;;;;;4.90;4.60;;;;;;;0.81;73.78;100596.94;5087400;28;20236;-70
2021/12/22 09:37:09;;;;;;;4.90;4.60;;;;;;;0.91;73.78;100588.81;5090618;28;20203;-71
2021/12/22 09:39:36;;;;;;;5.93;5.53;;;;;;;1.02;74.25;100592.50;5087570;28;20229;-70
2021/12/22 09:42:03;;;;;;;10.40;9.37;;;;;;;1.02;74.19;100567.25;5084437;28;20655;-70
2021/12/22 09:44:32;;;;;;;8.03;6.73;;;;;;;1.10;73.70;100574.19;5089844;28;20210;-71
2021/12/22 09:47:00;;;;;;;9.43;8.10;;;;;;;1.02;74.20;100566.38;5085985;28;20265;-70
2021/12/22 09:49:46;;;;;;;11.67;9.67;;;;;;;1.21;74.66;100567.72;5089870;28;20203;-70
2021/12/22 09:52:18;;;;;;;7.10;6.53;;;;;;;1.28;73.01;100569.59;5089713;28;20253;-70
2021/12/22 09:54:47;;;;;;;10.10;8.83;;;;;;;1.33;73.86;100568.03;5089448;28;20640;-71
2021/12/22 09:57:15;;;;;;;5.00;4.70;;;;;;;1.40;73.74;100565.72;5089302;28;21000;-71
2021/12/22 09:59:42;;;;;;;6.37;5.93;;;;;;;1.44;73.44;100561.59;5088400;28;20211;-70
2021/12/22 10:02:09;;;;;;;5.67;5.37;;;;;;;1.53;73.02;100565.19;5087072;28;20212;-71
2021/12/22 10:04:35;;;;;;;6.47;5.13;;;;;;;1.49;73.10;100554.97;5090600;28;20644;-71
2021/12/22 10:07:02;;;;;;;13.47;10.07;;;;;;;1.66;74.00;100558.75;5090449;28;20222;-71
2021/12/22 10:09:31;;;;;;;52.23;27.33;;;;;;;1.70;72.64;100558.03;5089877;28;20235;-71
2021/12/22 10:12:05;;;;;;;7.33;6.63;;;;;;;1.73;72.75;100555.56;5088962;28;20211;-71
2021/12/22 10:14:33;;;;;;;7.03;6.33;;;;;;;1.75;72.48;100553.91;5089270;28;20203;-71
2021/12/22 10:17:00;;;;;;;7.00;6.40;;;;;;;1.81;72.28;100549.00;5088870;28;20548;-70
2021/12/22 10:19:27;;;;;;;6.43;5.83;;;;;;;1.68;72.06;100541.94;5083007;28;20583;-69
2021/12/22 10:21:57;;;;;;;5.60;5.20;;;;;;;1.83;71.92;100546.53;5089345;28;20230;-70
2021/12/22 10:24:37;;;;;;;12.87;10.10;;;;;;;1.94;75.03;100535.81;5089320;28;20582;-69
2021/12/22 10:27:06;;;;;;;7.30;6.53;;;;;;;2.02;72.85;100546.97;5084169;28;20215;-70
2021/12/22 10:29:33;;;;;;;5.87;5.37;;;;;;;2.06;71.60;100545.38;5089059;28;20200;-69
2021/12/22 10:32:08;;;;;;;6.07;5.53;;;;;;;2.12;71.42;100545.50;5089313;28;20199;-70
2021/12/22 10:34:35;;;;;;;5.43;5.13;;;;;;;2.10;72.80;100553.03;5089057;28;20198;-69
2021/12/22 10:37:02;;;;;;;4.80;4.50;;;;;;;2.11;71.92;100549.69;5089280;28;20560;-70
2021/12/22 10:39:30;;;;;;;6.20;5.70;;;;;;;2.11;72.92;100546.31;5083016;28;20203;-69
2021/12/22 10:42:05;;;;;;;6.33;5.73;;;;;;;2.10;71.75;100542.94;5088544;28;20574;-69
2021/12/22 10:44:37;;;;;;;6.77;6.17;;;;;;;2.19;72.46;100532.19;5088181;28;20199;-69
2021/12/22 10:47:18;;;;;;;6.37;5.87;;;;;;;2.26;73.79;100528.97;5086318;28;20215;-69
2021/12/22 10:49:58;;;;;;;17.60;10.53;;;;;;;2.33;73.44;100525.72;5087042;28;20607;-69
2021/12/22 10:52:26;;;;;;;5.23;4.83;;;;;;;2.42;71.62;100525.06;5080294;28;20231;-69
2021/12/22 10:55:07;;;;;;;5.10;4.07;;;;;;;2.42;70.42;100512.41;5087783;28;20235;-69
2021/12/22 10:57:37;;;;;;;4.43;4.10;;;;;;;2.48;70.94;100515.06;5087427;28;20210;-69
2021/12/22 11:00:15;;;;;;;5.07;4.77;;;;;;;2.55;71.98;100506.78;5086238;28;20236;-69
2021/12/22 11:02:49;;;;;;;5.80;5.30;;;;;;;2.66;72.03;100505.28;5083622;28;20207;-69
2021/12/22 11:05:26;;;;;;;5.20;4.87;;;;;;;2.76;70.08;100499.56;5086865;28;20675;-70
2021/12/22 11:07:53;;;;;;;4.40;4.13;;;;;;;2.77;68.60;100493.69;5088187;28;20223;-69
2021/12/22 11:10:25;;;;;;;4.47;4.27;;;;;;;2.94;72.95;100499.06;5088138;28;20232;-69
2021/12/22 11:13:02;;;;;;;5.87;5.40;;;;;;;2.92;68.69;100486.38;5083741;28;20200;-71
2021/12/22 11:15:29;;;;;;;5.97;4.17;;;;;;;3.01;68.89;100494.13;5086143;28;20203;-70
2021/12/22 11:17:56;;;;;;;5.30;4.90;;;;;;;3.06;68.56;100486.63;5085492;28;20437;-76
2021/12/22 11:20:24;;;;;;;4.68;4.38;;;;;;;3.27;68.51;100484.44;5086407;28;20448;-67
2021/12/22 11:22:57;;;;;;;4.30;4.00;;;;;;;3.23;66.51;100471.69;5085193;28;20207;-68
2021/12/22 11:25:25;;;;;;;4.07;3.77;;;;;;;3.43;67.00;100495.66;5085775;28;20256;-67
2021/12/22 11:27:54;;;;;;;3.80;3.50;;;;;;;3.46;65.63;100490.63;5085564;28;20258;-67
2021/12/22 11:30:25;;;;;;;4.03;3.80;;;;;;;3.46;64.33;100496.56;5084871;28;20464;-67
2021/12/22 11:32:53;;;;;;;3.77;3.50;;;;;;;3.53;65.73;100489.91;5087494;28;20207;-67
2021/12/22 11:35:21;;;;;;;3.93;3.73;;;;;;;3.55;63.22;100493.34;5088169;28;20234;-67
2021/12/22 11:37:48;;;;;;;4.40;3.47;;;;;;;3.46;62.60;100488.09;5081262;28;20203;-67
2021/12/22 11:40:21;;;;;;;3.50;3.30;;;;;;;3.45;63.71;100477.13;5087430;28;20200;-68